x

Half Moon Bay - 24nm Ssw Of San Francisco, Ca (46012) Wave Buoy

11:50pm - Tue 23rd Aug 2016 All times are PDT. -7 hours from GMT.

  • Sig Wave height 3.3ft
  • Swell Direction
  • Peak Period 8s
  • Average Period 7s
  • Wind
    4mph, 7mph gusts
  • Sea Temp 59°f
  • Air Temp 58°f
  • Sea Pressure 1018.9mb
  • Half Moon Bay - 24nm Ssw Of San Francisco, Ca
  • Half Moon Bay - 24nm Ssw Of San Francisco, Ca

More Historic Weather Station data

Upgrade to MSW Pro to gain access to the past 30 days of data for over 8000 Wavebouys and Weather Stations around the globe.

Join Pro

Comparision Forecast

View Surf forecast
   
Tue 08/23 11:50pm 3.5ft 8s 7s 4 7 mph 1018.9mb 59f 58f
10:50pm 3ft 13s 7s 4 7 mph 1019.2mb 59f 58f
9:50pm 3ft 13s 7s 7 9 mph 1019.1mb 59f 58f
8:50pm 3ft 14s 7s 4 7 mph 1018.6mb 59f 58f
7:50pm 3ft 13s 7s 4 9 mph 1018.3mb 59f 59f
6:50pm 3ft 14s 7s 4 9 mph 1018.1mb 59f 59f
5:50pm 3.5ft 13s 7s 9
mph
1018.3mb 60f 59f
4:50pm 3.5ft 14s 7s 7
mph
1018.4mb 60f 59f
3:50pm 3ft 14s 7s 7 9 mph 1018.5mb 60f 60f
2:50pm 3.5ft 14s 8s 7 9 mph 1018.8mb 59f 60f
1:50pm 3.5ft 14s 8s 7 9 mph 1019.1mb 59f 59f
12:50pm 3.5ft 14s 7s 7
mph
1019.1mb 59f 59f
11:50am 3.5ft 14s 7s 4 7 mph 1019.2mb 59f 59f
10:50am 3.5ft 14s 8s 7 9 mph 1019.1mb 59f 59f
9:50am 3.5ft 14s 7s 7 9 mph 1018.4mb 59f 59f
8:50am 3.5ft 14s 7s 7 9 mph 1018mb 59f 59f
7:50am 3.5ft 14s 7s 4 7 mph 1017.5mb 59f 59f
6:50am 4.5ft 14s 8s 4 9 mph 1017mb 58f 59f
5:50am 3.5ft 14s 8s 2 4 mph 1016.2mb 58f 58f
4:50am 3.5ft 14s 7s 7 9 mph 1015.9mb 59f 58f
3:50am 3.5ft 15s 8s 4 7 mph 1015.9mb 59f 58f
2:50am 3.5ft 15s 7s 4 7 mph 1015.7mb 59f 58f
1:50am 3.5ft 15s 8s 4
mph
1015.6mb 59f 59f
12:50am 4ft 15s 8s 4 9 mph 1015.7mb 59f 59f
Mon 08/22 11:50pm 4ft 15s 9s 4 7 mph 1015.9mb 59f 59f
10:50pm 3.5ft 15s 8s 7 9 mph 1015.8mb 59f 59f
9:50pm 3.5ft 15s 7s 2 7 mph 1015.8mb 59f 59f
8:50pm 4ft 15s 8s 7 9 mph 1015mb 59f 59f
7:50pm 3.5ft 15s 8s 7
mph
1014.7mb 59f 59f
6:50pm 3.5ft 15s 7s 9 11 mph 1014.5mb 59f 59f
5:50pm 3.5ft 15s 8s 9 11 mph 1014.7mb 59f 59f
4:50pm 3.5ft 15s 8s 9
mph
1014.6mb 59f 59f
3:50pm 4ft 14s 8s 11 13 mph 1014.6mb 59f 59f
2:50pm 4ft 15s 9s 11 13 mph 1014.8mb 59f 59f
1:50pm 3.5ft 15s 8s 7 9 mph 1014.8mb 59f 58f
12:50pm 4ft 15s 9s 4 7 mph 1015.2mb 59f 58f
11:50am 4.5ft 16s 9s 7
mph
1015.4mb 59f 58f
10:50am 4ft 15s 8s 7 9 mph 1015.2mb 59f 58f
9:50am 4ft 14s 8s 7 9 mph 1014.6mb 59f 57f
8:50am 4.5ft 14s 8s 7 9 mph 1014.6mb 59f 57f
7:50am 4.5ft 15s 9s 9 11 mph 1014.3mb 59f 58f
6:50am 4ft 16s 8s 7 9 mph 1014.1mb 59f 59f
5:50am 4.5ft 16s 9s 7 9 mph 1013.5mb 59f 59f
4:50am 4.5ft 16s 9s 7
mph
1013.5mb 59f 59f
3:50am 4.5ft 16s 9s 4 7 mph 1013.5mb 59f 59f
2:50am 4ft 16s 9s 4 7 mph 1013.2mb 59f 58f
1:50am 4.5ft 16s 9s 4 7 mph 1013.6mb 59f 59f
12:50am 4.5ft 9s 8s 4 7 mph 1013.6mb 59f 59f
Sun 08/21 11:50pm 4.5ft 10s 9s 4 7 mph 1013.7mb 59f 59f
10:50pm 4.5ft 16s 9s 4 7 mph 1013.9mb 59f 59f
9:50pm 4.5ft 10s 8s 7 9 mph 1014mb 59f 60f
7:50pm 4.5ft 10s 8s 9 11 mph 1013.4mb 59f 60f
6:50pm 4.5ft 14s 9s 9 13 mph 1013.5mb 59f 59f
5:50pm 4.5ft 14s 9s 7 9 mph 1013.8mb 59f 59f
4:50pm 4.5ft 14s 9s 7 9 mph 1013.6mb 59f 59f
3:50pm 5ft 10s 9s 9 11 mph 1013.9mb 59f 59f
2:50pm 4.5ft 9s 9s 9 11 mph 1014.1mb 59f 59f
1:50pm 4.5ft 15s 9s 7 9 mph 1014.3mb 59f 59f
12:50pm 4.5ft 10s 9s 4 7 mph 1014.2mb 59f 58f
11:50am 5ft 11s 9s 4 7 mph 1014.3mb 59f 58f
10:50am 5ft 15s 9s 7
mph
1014.4mb 58f 58f
9:50am 4.5ft 15s 9s 4 7 mph 1014.3mb 58f 58f
8:50am 4.5ft 15s 9s 4 7 mph 1014.1mb 58f 58f
7:50am 5ft 15s 10s 4 7 mph 1014mb 58f 58f
6:50am 4.5ft 14s 9s 7 9 mph 1013.8mb 58f 58f
5:50am 5ft 15s 9s 9 11 mph 1013.4mb 58f 58f
4:50am 4.5ft 15s 9s 7 9 mph 1013.2mb 58f 58f
3:50am 5ft 13s 9s 7 9 mph 1013.1mb 58f 58f
2:50am 5ft 15s 9s 4 7 mph 1013.3mb 58f 58f
1:50am 5ft 12s 9s 7 9 mph 1013.5mb 59f 58f
12:50am 5ft 15s 10s 4 7 mph 1013.5mb 59f 58f
Sat 08/20 11:50pm 5ft 11s 9s 2 7 mph 1013.5mb 59f 58f
10:50pm 5ft 10s 9s 4 7 mph 1013.2mb 59f 58f
9:50pm 5ft 14s 10s  -  2 mph 1013.4mb 59f 59f
8:50pm 5ft 11s 10s 4 7 mph 1013.3mb 59f 59f
7:50pm 5.5ft 15s 10s 2 4 mph 1013.1mb 59f 59f
6:50pm 5ft 11s 10s 4 7 mph 1013.1mb 59f 59f
5:50pm 5.5ft 12s 9s 2 4 mph 1013.3mb 59f 59f
4:50pm 5.5ft 16s 10s 4 7 mph 1013.7mb 60f 59f
3:50pm 5.5ft 15s 10s 4 7 mph 1014.2mb 60f 59f
2:50pm 5.5ft 15s 9s 4 7 mph 1014.7mb 60f 59f
1:50pm 6ft 16s 10s 4
mph
1015mb 60f 59f
12:50pm 6ft 13s 9s 2
mph
1014.9mb 59f 59f
11:50am 5ft 16s 9s 2 4 mph 1015.3mb 59f 58f
10:50am 4.5ft 15s 9s  -  mph 1015.5mb 59f 58f
9:50am 4.5ft 15s 9s 4 7 mph 1015.3mb 59f 57f
8:50am 5ft 15s 9s 4 9 mph 1015mb 59f 57f
7:50am 5ft 10s 9s 4 9 mph 1014.5mb 59f 57f